Time;durP1;ratioP1;P1;durP2;ratioP2;P2;SDS_P1;SDS_P2;PMS_P1;PMS_P2;Temp;Humidity;BMP_temperature;BMP_pressure;BME280_temperature;BME280_humidity;BME280_pressure;Samples;Min_cycle;Max_cycle;Signal;HPM_P1;HPM_P2
2022/01/25 00:08:48;;;;;;;;;;;;;;;;;;2119251;28;19924;-70
2022/01/25 00:24:21;;;;;;;;;;;;;;;;;;2118941;28;19928;-69
2022/01/25 00:26:18;;;;;;;;;;;;;;;;;;2118603;28;19931;-67
2022/01/25 00:29:59;;;;;;;;;;;;;;;;;;2084371;28;20849;-66
2022/01/25 00:32:27;;;;;;;;;;;;;;;;;;2075327;28;19933;-65
2022/01/25 00:33:28;;;;;;;;;;;;;;;;;;2075854;28;20052;-65
2022/01/25 00:34:30;;;;;;;;;;;;;;;;;;2104978;28;20699;-64
2022/01/25 00:35:32;;;;;;;;;;;;;;;;;;2109449;28;19983;-68
2022/01/25 00:36:33;;;;;;;;;;;;;;;;;;2109671;28;20043;-68
2022/01/25 00:37:35;;;;;;;;;;;;;;;;;;2118668;28;19928;-69
2022/01/25 00:38:37;;;;;;;;;;;;;;;;;;2118577;28;19928;-68
2022/01/25 00:39:40;;;;;;;;;;;;;;;;;;2118634;28;20042;-68
2022/01/25 00:40:42;;;;;;;;;;;;;;;;;;2118536;28;19928;-67
2022/01/25 00:41:44;;;;;;;;;;;;;;;;;;2118403;28;20054;-72
2022/01/25 00:42:46;;;;;;;;;;;;;;;;;;2109481;28;19928;-70
2022/01/25 00:43:47;;;;;;;;;;;;;;;;;;2109671;28;20833;-69
2022/01/25 00:44:49;;;;;;;;;;;;;;;;;;2118514;28;20062;-70
2022/01/25 00:45:54;;;;;;;;;;;;;;;;;;2118878;28;19928;-68
2022/01/25 00:46:55;;;;;;;;;;;;;;;;;;2109387;28;19947;-68
2022/01/25 00:47:57;;;;;;;;;;;;;;;;;;2109405;28;19934;-68
2022/01/25 00:49:02;;;;;;;;;;;;;;;;;;2109770;28;19932;-70
2022/01/25 00:50:04;;;;;;;;;;;;;;;;;;2109297;28;20002;-71
2022/01/25 00:54:58;;;;;;;;;;;;;;;;;;2118535;28;20591;-70
2022/01/25 00:56:00;;;;;;;;;;;;;;;;;;2118386;28;19935;-69
2022/01/25 00:57:02;;;;;;;;;;;;;;;;;;2109431;28;19930;-69
2022/01/25 00:58:04;;;;;;;;;;;;;;;;;;2109758;28;19931;-68
2022/01/25 00:59:06;;;;;;;;;;;;;;;;;;2118450;28;19935;-71
2022/01/25 01:00:07;;;;;;;;;;;;;;;;;;2109313;28;19928;-70
2022/01/25 01:01:09;;;;;;;;;;;;;;;;;;2109376;28;19936;-71
2022/01/25 01:02:11;;;;;;;;;;;;;;;;;;2109453;28;20002;-71
2022/01/25 01:03:13;;;;;;;;;;;;;;;;;;2109704;28;20021;-72
2022/01/25 01:04:15;;;;;;;;;;;;;;;;;;2109066;28;20617;-70
2022/01/25 01:05:16;;;;;;;;;;;;;;;;;;2109560;28;20021;-72
2022/01/25 01:06:18;;;;;;;;;;;;;;;;;;2109410;28;19928;-71
2022/01/25 01:07:20;;;;;;;;;;;;;;;;;;2109165;28;19935;-71
2022/01/25 01:08:22;;;;;;;;;;;;;;;;;;2109541;28;20037;-69
2022/01/25 01:09:24;;;;;;;;;;;;;;;;;;2109293;28;19936;-71
2022/01/25 01:10:26;;;;;;;;;;;;;;;;;;2109492;28;20719;-71
2022/01/25 01:11:34;;;;;;;;;;;;;;;;;;2118424;28;19931;-71
2022/01/25 01:14:01;;;;;;;;;;;;;;;;;;2118513;28;19935;-71
2022/01/25 01:15:21;;;;;;;;;;;;;;;;;;2109227;28;20789;-71
2022/01/25 01:31:12;;;;;;;;;;;;;;;;;;2118390;28;20058;-71
2022/01/25 01:36:23;;;;;;;;;;;;;;;;;;2118087;28;19928;-70
2022/01/25 01:37:48;;;;;;;;;;;;;;;;;;2117739;28;20001;-70
2022/01/25 01:39:16;;;;;;;;;;;;;;;;;;2117912;28;20033;-70
2022/01/25 01:40:21;;;;;;;;;;;;;;;;;;2117892;28;20695;-70
2022/01/25 01:43:01;;;;;;;;;;;;;;;;;;2094398;28;20060;-71
2022/01/25 01:44:05;;;;;;;;;;;;;;;;;;2118116;28;19951;-70
2022/01/25 01:45:23;;;;;;;;;;;;;;;;;;2109098;28;20025;-70
2022/01/25 01:46:56;;;;;;;;;;;;;;;;;;2109014;28;19929;-69
2022/01/25 01:48:04;;;;;;;;;;;;;;;;;;2105195;28;19924;-70
2022/01/25 01:49:07;;;;;;;;;;;;;;;;;;2109814;28;20045;-69
2022/01/25 01:50:14;;;;;;;;;;;;;;;;;;2108413;28;20683;-71
2022/01/25 01:51:21;;;;;;;;;;;;;;;;;;2109498;28;19929;-70
2022/01/25 01:52:23;;;;;;;;;;;;;;;;;;2108395;28;19925;-70
2022/01/25 01:53:25;;;;;;;;;;;;;;;;;;2108462;28;20145;-69
2022/01/25 01:54:27;;;;;;;;;;;;;;;;;;2117338;28;19928;-71
2022/01/25 01:55:29;;;;;;;;;;;;;;;;;;2117362;28;19924;-70
2022/01/25 01:56:30;;;;;;;;;;;;;;;;;;2117301;28;19954;-70
2022/01/25 01:57:32;;;;;;;;;;;;;;;;;;2117418;28;19946;-69
2022/01/25 01:58:34;;;;;;;;;;;;;;;;;;2117251;28;20640;-69
2022/01/25 01:59:35;;;;;;;;;;;;;;;;;;2108352;28;19928;-70
2022/01/25 02:00:38;;;;;;;;;;;;;;;;;;2108541;28;20049;-70
2022/01/25 02:01:40;;;;;;;;;;;;;;;;;;2100457;28;20322;-69
2022/01/25 02:02:42;;;;;;;;;;;;;;;;;;2100281;28;19999;-70
2022/01/25 02:03:43;;;;;;;;;;;;;;;;;;2108481;28;19932;-69
2022/01/25 02:04:45;;;;;;;;;;;;;;;;;;2117209;28;19928;-71
2022/01/25 02:05:48;;;;;;;;;;;;;;;;;;2117369;28;20714;-69
2022/01/25 02:06:50;;;;;;;;;;;;;;;;;;2117230;28;19979;-70
2022/01/25 02:07:52;;;;;;;;;;;;;;;;;;2108287;28;20762;-70
2022/01/25 02:08:54;;;;;;;;;;;;;;;;;;2108630;28;19967;-70
2022/01/25 02:09:56;;;;;;;;;;;;;;;;;;2117361;28;20677;-70
2022/01/25 02:10:58;;;;;;;;;;;;;;;;;;2117333;28;20024;-69
2022/01/25 02:12:00;;;;;;;;;;;;;;;;;;2108289;28;20098;-70
2022/01/25 02:13:03;;;;;;;;;;;;;;;;;;2108789;28;19931;-70
2022/01/25 02:14:08;;;;;;;;;;;;;;;;;;2117272;28;19997;-70
2022/01/25 02:15:11;;;;;;;;;;;;;;;;;;2117487;28;19935;-70
2022/01/25 02:22:50;;;;;;;;;;;;;;;;;;2117265;28;19928;-70
2022/01/25 02:23:52;;;;;;;;;;;;;;;;;;2117312;28;19955;-70
2022/01/25 02:24:54;;;;;;;;;;;;;;;;;;2117429;28;20011;-70
2022/01/25 02:25:56;;;;;;;;;;;;;;;;;;2117266;28;20654;-70
2022/01/25 02:26:57;;;;;;;;;;;;;;;;;;2117201;28;19974;-71
2022/01/25 02:27:59;;;;;;;;;;;;;;;;;;2108223;28;19928;-71
2022/01/25 02:29:01;;;;;;;;;;;;;;;;;;2108511;28;19929;-71
2022/01/25 02:30:03;;;;;;;;;;;;;;;;;;2117258;28;19924;-71
2022/01/25 02:31:06;;;;;;;;;;;;;;;;;;2117254;28;19928;-69
2022/01/25 02:32:08;;;;;;;;;;;;;;;;;;2117228;28;19928;-70
2022/01/25 02:33:12;;;;;;;;;;;;;;;;;;2117252;28;19924;-69
2022/01/25 02:34:15;;;;;;;;;;;;;;;;;;2108125;28;19936;-69
2022/01/25 02:35:18;;;;;;;;;;;;;;;;;;2108812;28;19975;-68
2022/01/25 02:36:22;;;;;;;;;;;;;;;;;;2117154;28;19924;-68
2022/01/25 02:37:24;;;;;;;;;;;;;;;;;;2117461;28;19928;-67
2022/01/25 02:38:26;;;;;;;;;;;;;;;;;;2108215;28;19971;-68
2022/01/25 02:39:29;;;;;;;;;;;;;;;;;;2107915;28;19935;-68
2022/01/25 02:40:32;;;;;;;;;;;;;;;;;;2100436;28;20735;-69
2022/01/25 02:41:35;;;;;;;;;;;;;;;;;;2109974;28;19991;-67
2022/01/25 02:42:38;;;;;;;;;;;;;;;;;;2119146;28;20696;-67
2022/01/25 02:43:42;;;;;;;;;;;;;;;;;;2119149;28;20056;-66
2022/01/25 02:44:45;;;;;;;;;;;;;;;;;;2118838;28;19931;-66
2022/01/25 02:45:52;;;;;;;;;;;;;;;;;;2110118;28;19928;-68
2022/01/25 02:49:26;;;;;;;;;;;;;;;;;;2050797;28;1897280;-66
2022/01/25 02:50:29;;;;;;;;;;;;;;;;;;2119073;28;20618;-69
2022/01/25 02:51:31;;;;;;;;;;;;;;;;;;2119326;28;20020;-69
2022/01/25 02:52:37;;;;;;;;;;;;;;;;;;2119372;28;20108;-67
2022/01/25 02:53:41;;;;;;;;;;;;;;;;;;2119380;28;20107;-71
2022/01/25 02:54:45;;;;;;;;;;;;;;;;;;2119234;28;19931;-70
2022/01/25 02:55:50;;;;;;;;;;;;;;;;;;2119253;28;20820;-70
2022/01/25 02:56:52;;;;;;;;;;;;;;;;;;2119029;28;19954;-68
2022/01/25 02:57:55;;;;;;;;;;;;;;;;;;2119221;28;20592;-70
2022/01/25 02:59:00;;;;;;;;;;;;;;;;;;2119162;28;19932;-68
2022/01/25 03:00:04;;;;;;;;;;;;;;;;;;2119180;28;20058;-69
2022/01/25 03:01:10;;;;;;;;;;;;;;;;;;2119108;28;20820;-68
2022/01/25 03:02:15;;;;;;;;;;;;;;;;;;2118900;28;19973;-68
2022/01/25 03:03:19;;;;;;;;;;;;;;;;;;2119158;28;20042;-69
2022/01/25 03:04:23;;;;;;;;;;;;;;;;;;2118915;28;19932;-70
2022/01/25 03:05:28;;;;;;;;;;;;;;;;;;2110063;28;19924;-70
2022/01/25 03:06:32;;;;;;;;;;;;;;;;;;2111123;28;19929;-69
2022/01/25 03:07:34;;;;;;;;;;;;;;;;;;2118816;28;19924;-69
2022/01/25 03:08:39;;;;;;;;;;;;;;;;;;2110012;28;20003;-69
2022/01/25 03:09:43;;;;;;;;;;;;;;;;;;2110023;28;19928;-69
2022/01/25 03:10:48;;;;;;;;;;;;;;;;;;2111037;28;19928;-68
2022/01/25 03:11:53;;;;;;;;;;;;;;;;;;2119160;28;19924;-69
2022/01/25 03:12:57;;;;;;;;;;;;;;;;;;2119059;28;20761;-69
2022/01/25 03:14:03;;;;;;;;;;;;;;;;;;2109778;28;19925;-69
2022/01/25 03:16:32;;;;;;;;;;;;;;;;;;2111880;28;19929;-72
2022/01/25 03:17:44;;;;;;;;;;;;;;;;;;2119074;28;19924;-72
2022/01/25 03:18:49;;;;;;;;;;;;;;;;;;2109868;28;19924;-71
2022/01/25 03:20:03;;;;;;;;;;;;;;;;;;2110835;28;19931;-70
2022/01/25 03:21:18;;;;;;;;;;;;;;;;;;2109985;28;19975;-70
2022/01/25 03:23:57;;;;;;;;;;;;;;;;;;2084464;28;19929;-70
2022/01/25 03:24:59;;;;;;;;;;;;;;;;;;2110091;28;20767;-70
2022/01/25 03:26:01;;;;;;;;;;;;;;;;;;2110016;28;19936;-70
2022/01/25 03:27:04;;;;;;;;;;;;;;;;;;2110412;28;20632;-70
2022/01/25 03:28:05;;;;;;;;;;;;;;;;;;2118935;28;20092;-70
2022/01/25 03:29:08;;;;;;;;;;;;;;;;;;2119028;28;19950;-70
2022/01/25 03:30:11;;;;;;;;;;;;;;;;;;2119216;28;19969;-71
2022/01/25 03:31:12;;;;;;;;;;;;;;;;;;2109768;28;19929;-70
2022/01/25 03:32:15;;;;;;;;;;;;;;;;;;2109986;28;20742;-71
2022/01/25 03:33:17;;;;;;;;;;;;;;;;;;2110412;28;19932;-71
2022/01/25 03:34:20;;;;;;;;;;;;;;;;;;2109696;28;19998;-70
2022/01/25 03:35:22;;;;;;;;;;;;;;;;;;2110521;28;20766;-73
2022/01/25 03:36:26;;;;;;;;;;;;;;;;;;2110042;28;19924;-73
2022/01/25 03:37:29;;;;;;;;;;;;;;;;;;2110870;28;19925;-71
2022/01/25 03:38:30;;;;;;;;;;;;;;;;;;2110351;28;19972;-71
2022/01/25 03:39:33;;;;;;;;;;;;;;;;;;2110605;28;20646;-71
2022/01/25 03:40:36;;;;;;;;;;;;;;;;;;2110241;28;19928;-71
2022/01/25 03:41:39;;;;;;;;;;;;;;;;;;2110278;28;19935;-72
2022/01/25 03:42:44;;;;;;;;;;;;;;;;;;2110408;28;19932;-71
2022/01/25 03:43:53;;;;;;;;;;;;;;;;;;2118893;28;20097;-70
2022/01/25 03:44:56;;;;;;;;;;;;;;;;;;2109830;28;19929;-71
2022/01/25 03:46:03;;;;;;;;;;;;;;;;;;2110461;28;20831;-71
2022/01/25 03:47:10;;;;;;;;;;;;;;;;;;2118875;28;19924;-72
2022/01/25 03:50:35;;;;;;;;;;;;;;;;;;2118848;28;20066;-71
2022/01/25 03:51:39;;;;;;;;;;;;;;;;;;2118944;27;19924;-70
2022/01/25 03:52:41;;;;;;;;;;;;;;;;;;2118528;28;20001;-69
2022/01/25 03:53:43;;;;;;;;;;;;;;;;;;2118640;28;20738;-71
2022/01/25 03:54:45;;;;;;;;;;;;;;;;;;2118933;28;20727;-70
2022/01/25 03:55:47;;;;;;;;;;;;;;;;;;2109826;28;19999;-69
2022/01/25 03:56:49;;;;;;;;;;;;;;;;;;2110126;28;19925;-71
2022/01/25 03:57:51;;;;;;;;;;;;;;;;;;2118944;28;20013;-71
2022/01/25 03:58:53;;;;;;;;;;;;;;;;;;2109929;28;19925;-70
2022/01/25 03:59:58;;;;;;;;;;;;;;;;;;2110016;28;19971;-71
2022/01/25 04:01:00;;;;;;;;;;;;;;;;;;2118855;28;19927;-70
2022/01/25 04:02:02;;;;;;;;;;;;;;;;;;2118902;28;19924;-70
2022/01/25 04:03:17;;;;;;;;;;;;;;;;;;2109770;28;19959;-70
2022/01/25 04:04:22;;;;;;;;;;;;;;;;;;2111786;28;19935;-71
2022/01/25 04:05:35;;;;;;;;;;;;;;;;;;2109695;28;20054;-70
2022/01/25 04:06:37;;;;;;;;;;;;;;;;;;2111741;28;20044;-70
2022/01/25 04:07:48;;;;;;;;;;;;;;;;;;2118875;28;19935;-70
2022/01/25 04:08:49;;;;;;;;;;;;;;;;;;2109746;28;19932;-70
2022/01/25 04:09:52;;;;;;;;;;;;;;;;;;2109981;28;19924;-70
2022/01/25 04:10:54;;;;;;;;;;;;;;;;;;2109359;28;19988;-68
2022/01/25 04:11:56;;;;;;;;;;;;;;;;;;2110022;28;20733;-71
2022/01/25 04:12:58;;;;;;;;;;;;;;;;;;2118695;28;20053;-70
2022/01/25 04:14:00;;;;;;;;;;;;;;;;;;2118858;28;19931;-70
2022/01/25 04:15:03;;;;;;;;;;;;;;;;;;2118593;28;20738;-67
2022/01/25 04:16:12;;;;;;;;;;;;;;;;;;2118235;28;19942;-67
2022/01/25 04:17:19;;;;;;;;;;;;;;;;;;2110161;28;19928;-67
2022/01/25 04:20:34;;;;;;;;;;;;;;;;;;2118800;28;20588;-70
2022/01/25 04:25:21;;;;;;;;;;;;;;;;;;2118878;28;20053;-67
2022/01/25 04:26:23;;;;;;;;;;;;;;;;;;2118557;28;20746;-70
2022/01/25 04:27:25;;;;;;;;;;;;;;;;;;2109888;28;19935;-69
2022/01/25 04:28:27;;;;;;;;;;;;;;;;;;2109400;28;19932;-69
2022/01/25 04:29:29;;;;;;;;;;;;;;;;;;2109795;28;20682;-70
2022/01/25 04:30:32;;;;;;;;;;;;;;;;;;2116906;28;20723;-70
2022/01/25 04:31:35;;;;;;;;;;;;;;;;;;2110067;28;19936;-69
2022/01/25 04:32:54;;;;;;;;;;;;;;;;;;2101238;28;19924;-70
2022/01/25 04:34:13;;;;;;;;;;;;;;;;;;2095133;28;19925;-69
2022/01/25 04:35:39;;;;;;;;;;;;;;;;;;2104176;28;19933;-70
2022/01/25 04:49:55;;;;;;;;;;;;;;;;;;2118102;28;20054;-70
2022/01/25 04:52:04;;;;;;;;;;;;;;;;;;2109364;28;19959;-70
2022/01/25 04:52:38;;;;;;;;;;;;;;;;;;2105754;28;20005;-70
2022/01/25 04:54:19;;;;;;;;;;;;;;;;;;2118639;28;20697;-70
2022/01/25 04:55:19;;;;;;;;;;;;;;;;;;2114581;28;19928;-70
2022/01/25 04:56:32;;;;;;;;;;;;;;;;;;2109452;28;19928;-70
2022/01/25 04:58:00;;;;;;;;;;;;;;;;;;2111388;28;19932;-70
2022/01/25 04:59:11;;;;;;;;;;;;;;;;;;2118416;28;19935;-70
2022/01/25 05:00:18;;;;;;;;;;;;;;;;;;2118397;28;19930;-70
2022/01/25 05:01:20;;;;;;;;;;;;;;;;;;2118380;28;20631;-69
2022/01/25 05:02:49;;;;;;;;;;;;;;;;;;2109341;28;20729;-69
2022/01/25 05:05:03;;;;;;;;;;;;;;;;;;2109705;28;19936;-70
2022/01/25 05:06:14;;;;;;;;;;;;;;;;;;2109384;28;19928;-69
2022/01/25 05:07:32;;;;;;;;;;;;;;;;;;2109324;28;19928;-69
2022/01/25 05:08:42;;;;;;;;;;;;;;;;;;2112115;28;19924;-69
2022/01/25 05:09:46;;;;;;;;;;;;;;;;;;2118290;28;19928;-69
2022/01/25 05:11:03;;;;;;;;;;;;;;;;;;2109363;28;20113;-68
2022/01/25 05:12:08;;;;;;;;;;;;;;;;;;2109254;28;19930;-68
2022/01/25 05:13:22;;;;;;;;;;;;;;;;;;2101712;28;19936;-68
2022/01/25 05:14:32;;;;;;;;;;;;;;;;;;2102559;28;19929;-70
2022/01/25 05:16:01;;;;;;;;;;;;;;;;;;2102453;28;19932;-69
2022/01/25 05:17:03;;;;;;;;;;;;;;;;;;2113325;28;20042;-69
2022/01/25 05:18:14;;;;;;;;;;;;;;;;;;2109216;28;19928;-70
2022/01/25 05:22:59;;;;;;;;;;;;;;;;;;2118349;28;20685;-68
2022/01/25 05:24:01;;;;;;;;;;;;;;;;;;2118236;28;19928;-68
2022/01/25 05:25:03;;;;;;;;;;;;;;;;;;2118232;28;20611;-68
2022/01/25 05:26:05;;;;;;;;;;;;;;;;;;2108999;28;19928;-69
2022/01/25 05:27:08;;;;;;;;;;;;;;;;;;2109148;28;19975;-69
2022/01/25 05:28:09;;;;;;;;;;;;;;;;;;2109531;28;19935;-68
2022/01/25 05:29:11;;;;;;;;;;;;;;;;;;2109202;28;19990;-66
2022/01/25 05:30:12;;;;;;;;;;;;;;;;;;2109220;28;19929;-65
2022/01/25 05:31:15;;;;;;;;;;;;;;;;;;2109265;28;19936;-66
2022/01/25 05:32:17;;;;;;;;;;;;;;;;;;2109295;28;20724;-68
2022/01/25 05:33:20;;;;;;;;;;;;;;;;;;2109322;28;19934;-68
2022/01/25 05:34:22;;;;;;;;;;;;;;;;;;2100866;28;20725;-69
2022/01/25 05:35:23;;;;;;;;;;;;;;;;;;2101220;28;19936;-67
2022/01/25 05:36:26;;;;;;;;;;;;;;;;;;2109474;28;19975;-68
2022/01/25 05:37:31;;;;;;;;;;;;;;;;;;2108975;28;19925;-66
2022/01/25 05:38:33;;;;;;;;;;;;;;;;;;2109905;28;19931;-66
2022/01/25 05:39:36;;;;;;;;;;;;;;;;;;2118192;28;19924;-66
2022/01/25 05:40:45;;;;;;;;;;;;;;;;;;2118132;28;19924;-67
2022/01/25 05:41:55;;;;;;;;;;;;;;;;;;2118095;28;19931;-66
2022/01/25 05:45:38;;;;;;;;;;;;;;;;;;2118104;28;20749;-69
2022/01/25 05:47:49;;;;;;;;;;;;;;;;;;2118095;28;19955;-68
2022/01/25 05:48:51;;;;;;;;;;;;;;;;;;2108806;28;19928;-65
2022/01/25 05:49:54;;;;;;;;;;;;;;;;;;2108928;28;20062;-65
2022/01/25 05:50:56;;;;;;;;;;;;;;;;;;2109081;28;20055;-67
2022/01/25 05:51:58;;;;;;;;;;;;;;;;;;2109423;28;19928;-66
2022/01/25 05:53:00;;;;;;;;;;;;;;;;;;2117986;28;20042;-66
2022/01/25 05:54:03;;;;;;;;;;;;;;;;;;2118012;28;19982;-66
2022/01/25 05:55:05;;;;;;;;;;;;;;;;;;2108861;28;19928;-70
2022/01/25 05:56:07;;;;;;;;;;;;;;;;;;2109313;28;20741;-67
2022/01/25 05:57:09;;;;;;;;;;;;;;;;;;2108961;28;20046;-67
2022/01/25 05:58:12;;;;;;;;;;;;;;;;;;2109376;28;19929;-68
2022/01/25 05:59:13;;;;;;;;;;;;;;;;;;2118034;28;19928;-68
2022/01/25 06:00:15;;;;;;;;;;;;;;;;;;2117786;28;19924;-69
2022/01/25 06:01:17;;;;;;;;;;;;;;;;;;2117952;28;20619;-70
2022/01/25 06:02:21;;;;;;;;;;;;;;;;;;2108948;28;19926;-69
2022/01/25 06:03:23;;;;;;;;;;;;;;;;;;2112599;28;19932;-68
2022/01/25 06:04:25;;;;;;;;;;;;;;;;;;2119603;28;19928;-69
2022/01/25 06:05:27;;;;;;;;;;;;;;;;;;2117943;28;19924;-69
2022/01/25 06:06:30;;;;;;;;;;;;;;;;;;2117718;28;19995;-70
2022/01/25 06:07:32;;;;;;;;;;;;;;;;;;2117896;28;19928;-68
2022/01/25 06:08:34;;;;;;;;;;;;;;;;;;2117961;28;20037;-67
2022/01/25 06:09:39;;;;;;;;;;;;;;;;;;2118060;28;19927;-69
2022/01/25 06:10:42;;;;;;;;;;;;;;;;;;2117966;28;20722;-67
2022/01/25 06:11:44;;;;;;;;;;;;;;;;;;2117840;28;20764;-68
2022/01/25 06:12:46;;;;;;;;;;;;;;;;;;2117969;28;20733;-67
2022/01/25 06:13:49;;;;;;;;;;;;;;;;;;2118133;28;19928;-70
2022/01/25 06:14:51;;;;;;;;;;;;;;;;;;2117737;28;19928;-70
2022/01/25 06:15:53;;;;;;;;;;;;;;;;;;2108775;28;19928;-68
2022/01/25 06:16:56;;;;;;;;;;;;;;;;;;2109116;28;19956;-69
2022/01/25 06:17:58;;;;;;;;;;;;;;;;;;2108760;28;19924;-69
2022/01/25 06:19:00;;;;;;;;;;;;;;;;;;2107272;28;20070;-71
2022/01/25 06:20:02;;;;;;;;;;;;;;;;;;2115442;28;20739;-71
2022/01/25 06:21:05;;;;;;;;;;;;;;;;;;2110540;28;19928;-68
2022/01/25 06:22:07;;;;;;;;;;;;;;;;;;2111479;28;19928;-65
2022/01/25 06:23:09;;;;;;;;;;;;;;;;;;2108173;28;20698;-65
2022/01/25 06:24:12;;;;;;;;;;;;;;;;;;2105740;28;19928;-61
2022/01/25 06:25:15;;;;;;;;;;;;;;;;;;2100813;28;19935;-67
2022/01/25 06:26:17;;;;;;;;;;;;;;;;;;2097870;28;19933;-66
2022/01/25 06:27:19;;;;;;;;;;;;;;;;;;2098342;28;19933;-63
2022/01/25 06:28:21;;;;;;;;;;;;;;;;;;2110414;28;19928;-61
2022/01/25 06:29:23;;;;;;;;;;;;;;;;;;2111659;28;19936;-63
2022/01/25 06:30:24;;;;;;;;;;;;;;;;;;2107767;28;19959;-66
2022/01/25 06:31:47;;;;;;;;;;;;;;;;;;2111277;28;20014;-61
2022/01/25 06:33:09;;;;;;;;;;;;;;;;;;2103308;28;19928;-63
2022/01/25 06:34:30;;;;;;;;;;;;;;;;;;2107118;28;19967;-61
2022/01/25 06:35:52;;;;;;;;;;;;;;;;;;2111244;28;20010;-62
2022/01/25 06:37:13;;;;;;;;;;;;;;;;;;2108446;28;19929;-65
2022/01/25 06:38:35;;;;;;;;;;;;;;;;;;2108786;28;19928;-62
2022/01/25 06:39:58;;;;;;;;;;;;;;;;;;2113354;28;19971;-62
2022/01/25 06:41:19;;;;;;;;;;;;;;;;;;2111741;28;19935;-62
2022/01/25 06:42:40;;;;;;;;;;;;;;;;;;2106276;28;20790;-62
2022/01/25 06:44:02;;;;;;;;;;;;;;;;;;2114428;28;19928;-62
2022/01/25 06:45:24;;;;;;;;;;;;;;;;;;2100661;28;20007;-63
2022/01/25 06:46:46;;;;;;;;;;;;;;;;;;2111213;28;19928;-62
2022/01/25 06:48:07;;;;;;;;;;;;;;;;;;2112407;28;19940;-62
2022/01/25 06:49:25;;;;;;;;;;;;;;;;;;2108067;28;20030;-62
2022/01/25 06:50:38;;;;;;;;;;;;;;;;;;2107949;28;19924;-63
2022/01/25 06:51:47;;;;;;;;;;;;;;;;;;2108034;28;20731;-66
2022/01/25 06:52:55;;;;;;;;;;;;;;;;;;2116762;28;20736;-63
2022/01/25 06:54:03;;;;;;;;;;;;;;;;;;2111640;28;19936;-65
2022/01/25 06:55:11;;;;;;;;;;;;;;;;;;2109869;28;20045;-67
2022/01/25 06:56:15;;;;;;;;;;;;;;;;;;2108306;28;19925;-66
2022/01/25 06:57:20;;;;;;;;;;;;;;;;;;2112074;28;19932;-64
2022/01/25 06:58:25;;;;;;;;;;;;;;;;;;2107723;28;19928;-66
2022/01/25 06:59:31;;;;;;;;;;;;;;;;;;2107068;28;19968;-64
2022/01/25 07:00:34;;;;;;;;;;;;;;;;;;2109361;28;20655;-69
2022/01/25 07:01:38;;;;;;;;;;;;;;;;;;2109969;28;19932;-66
2022/01/25 07:02:42;;;;;;;;;;;;;;;;;;2109930;28;19979;-66
2022/01/25 07:03:47;;;;;;;;;;;;;;;;;;2105652;28;19978;-66
2022/01/25 07:04:52;;;;;;;;;;;;;;;;;;2116470;28;19934;-64
2022/01/25 07:05:56;;;;;;;;;;;;;;;;;;2113986;28;19972;-74
2022/01/25 07:06:58;;;;;;;;;;;;;;;;;;2110881;28;19935;-69
2022/01/25 07:08:02;;;;;;;;;;;;;;;;;;2112919;28;19924;-66
2022/01/25 07:09:08;;;;;;;;;;;;;;;;;;2103776;28;20829;-65
2022/01/25 07:10:12;;;;;;;;;;;;;;;;;;2101518;28;19924;-72
2022/01/25 07:11:14;;;;;;;;;;;;;;;;;;2108779;28;20683;-67
2022/01/25 07:12:17;;;;;;;;;;;;;;;;;;2108027;28;20731;-67
2022/01/25 07:13:20;;;;;;;;;;;;;;;;;;2109856;28;19928;-67
2022/01/25 07:14:24;;;;;;;;;;;;;;;;;;2108678;28;19925;-70
2022/01/25 07:15:27;;;;;;;;;;;;;;;;;;2112552;28;19990;-66
2022/01/25 07:16:30;;;;;;;;;;;;;;;;;;2104382;28;19929;-71
2022/01/25 07:17:32;;;;;;;;;;;;;;;;;;2105325;28;20022;-68
2022/01/25 07:18:35;;;;;;;;;;;;;;;;;;2107297;28;19925;-69
2022/01/25 07:19:36;;;;;;;;;;;;;;;;;;2101811;28;19935;-67
2022/01/25 07:20:39;;;;;;;;;;;;;;;;;;2107110;28;19935;-64
2022/01/25 07:21:42;;;;;;;;;;;;;;;;;;2109658;28;19928;-64
2022/01/25 07:22:44;;;;;;;;;;;;;;;;;;2099424;28;20002;-67
2022/01/25 07:23:46;;;;;;;;;;;;;;;;;;2103047;28;19928;-64
2022/01/25 07:24:48;;;;;;;;;;;;;;;;;;2114711;28;20612;-65
2022/01/25 07:25:51;;;;;;;;;;;;;;;;;;2109991;28;20054;-65
2022/01/25 07:26:53;;;;;;;;;;;;;;;;;;2108256;28;19934;-65
2022/01/25 07:27:55;;;;;;;;;;;;;;;;;;2116017;28;20650;-64
2022/01/25 07:28:58;;;;;;;;;;;;;;;;;;2117009;28;19928;-67
2022/01/25 07:29:59;;;;;;;;;;;;;;;;;;2112057;28;19932;-66
2022/01/25 07:31:01;;;;;;;;;;;;;;;;;;2114156;28;20787;-65
2022/01/25 07:32:02;;;;;;;;;;;;;;;;;;2100967;28;20759;-71
2022/01/25 07:33:07;;;;;;;;;;;;;;;;;;2100485;28;19929;-64
2022/01/25 07:34:09;;;;;;;;;;;;;;;;;;2118435;28;19971;-70
2022/01/25 07:35:12;;;;;;;;;;;;;;;;;;2117833;28;20074;-70
2022/01/25 07:36:14;;;;;;;;;;;;;;;;;;2116792;28;19928;-68
2022/01/25 07:37:17;;;;;;;;;;;;;;;;;;2107550;28;19928;-68
2022/01/25 07:38:20;;;;;;;;;;;;;;;;;;2102872;28;19963;-68
2022/01/25 07:39:23;;;;;;;;;;;;;;;;;;2103716;28;20043;-69
2022/01/25 07:40:25;;;;;;;;;;;;;;;;;;2108630;28;19932;-70
2022/01/25 07:41:27;;;;;;;;;;;;;;;;;;2117906;28;19928;-71
2022/01/25 07:42:33;;;;;;;;;;;;;;;;;;2108648;28;19936;-69
2022/01/25 07:43:37;;;;;;;;;;;;;;;;;;2102864;28;19936;-68
2022/01/25 07:44:41;;;;;;;;;;;;;;;;;;2104897;28;20018;-74
2022/01/25 07:45:51;;;;;;;;;;;;;;;;;;2105953;28;20042;-73
2022/01/25 07:46:57;;;;;;;;;;;;;;;;;;2109032;28;19932;-76
2022/01/25 07:47:59;;;;;;;;;;;;;;;;;;2116838;28;19928;-72
2022/01/25 07:49:02;;;;;;;;;;;;;;;;;;2112445;28;19929;-72
2022/01/25 07:50:04;;;;;;;;;;;;;;;;;;2108757;28;19967;-72
2022/01/25 07:51:05;;;;;;;;;;;;;;;;;;2113755;28;19924;-72
2022/01/25 07:52:09;;;;;;;;;;;;;;;;;;2109900;28;20708;-72
2022/01/25 07:53:11;;;;;;;;;;;;;;;;;;2113234;28;19935;-72
2022/01/25 07:54:14;;;;;;;;;;;;;;;;;;2115566;28;19928;-71
2022/01/25 07:55:17;;;;;;;;;;;;;;;;;;2113313;28;19928;-71
2022/01/25 07:56:20;;;;;;;;;;;;;;;;;;2111699;28;19925;-72
2022/01/25 07:57:22;;;;;;;;;;;;;;;;;;2108374;28;19929;-71
2022/01/25 07:58:25;;;;;;;;;;;;;;;;;;2108739;28;19934;-74
2022/01/25 07:59:27;;;;;;;;;;;;;;;;;;2111263;28;19928;-74
2022/01/25 08:00:30;;;;;;;;;;;;;;;;;;2106529;28;19928;-74
2022/01/25 08:01:33;;;;;;;;;;;;;;;;;;2112005;28;19929;-74
2022/01/25 08:02:35;;;;;;;;;;;;;;;;;;2101200;28;21202;-74
2022/01/25 08:03:38;;;;;;;;;;;;;;;;;;2105492;28;20073;-74
2022/01/25 08:04:40;;;;;;;;;;;;;;;;;;2113317;28;19983;-72
2022/01/25 08:05:44;;;;;;;;;;;;;;;;;;2107782;28;19932;-73
2022/01/25 08:06:46;;;;;;;;;;;;;;;;;;2108203;28;19950;-74
2022/01/25 08:07:48;;;;;;;;;;;;;;;;;;2106957;28;19928;-74
2022/01/25 08:08:51;;;;;;;;;;;;;;;;;;2101064;28;19936;-75
2022/01/25 08:09:52;;;;;;;;;;;;;;;;;;2107492;28;20053;-73
2022/01/25 08:10:54;;;;;;;;;;;;;;;;;;2096120;28;19936;-73
2022/01/25 08:11:56;;;;;;;;;;;;;;;;;;2107322;28;20817;-72
2022/01/25 08:12:59;;;;;;;;;;;;;;;;;;2116529;28;19928;-72
2022/01/25 08:14:12;;;;;;;;;;;;;;;;;;2117309;28;19928;-73
2022/01/25 08:15:16;;;;;;;;;;;;;;;;;;2102756;28;19925;-73
2022/01/25 08:16:20;;;;;;;;;;;;;;;;;;2105912;28;19929;-73
2022/01/25 08:17:22;;;;;;;;;;;;;;;;;;2107395;28;19924;-73
2022/01/25 08:18:25;;;;;;;;;;;;;;;;;;2099860;28;19929;-74
2022/01/25 08:19:27;;;;;;;;;;;;;;;;;;2099250;28;19935;-73
2022/01/25 08:20:29;;;;;;;;;;;;;;;;;;2099125;28;20923;-73
2022/01/25 08:21:31;;;;;;;;;;;;;;;;;;2108144;28;20067;-73
2022/01/25 08:22:33;;;;;;;;;;;;;;;;;;2111252;28;20848;-73
2022/01/25 08:23:36;;;;;;;;;;;;;;;;;;2115560;28;19928;-73
2022/01/25 08:24:38;;;;;;;;;;;;;;;;;;2104114;28;19925;-72
2022/01/25 08:25:40;;;;;;;;;;;;;;;;;;2099307;28;19935;-73
2022/01/25 08:26:43;;;;;;;;;;;;;;;;;;2102659;28;19929;-71
2022/01/25 08:27:46;;;;;;;;;;;;;;;;;;2105514;28;19928;-72
2022/01/25 08:28:49;;;;;;;;;;;;;;;;;;2100285;28;20030;-72
2022/01/25 08:29:51;;;;;;;;;;;;;;;;;;2100349;28;19929;-72
2022/01/25 08:30:53;;;;;;;;;;;;;;;;;;2108269;28;20051;-72
2022/01/25 08:31:55;;;;;;;;;;;;;;;;;;2108752;28;19929;-72
2022/01/25 08:32:58;;;;;;;;;;;;;;;;;;2100221;28;19929;-72
2022/01/25 08:34:00;;;;;;;;;;;;;;;;;;2112805;28;19955;-72
2022/01/25 08:35:03;;;;;;;;;;;;;;;;;;2113126;28;20714;-71
2022/01/25 08:36:06;;;;;;;;;;;;;;;;;;2105782;28;19925;-72
2022/01/25 08:37:09;;;;;;;;;;;;;;;;;;2106046;28;19928;-75
2022/01/25 08:38:11;;;;;;;;;;;;;;;;;;2104262;28;19936;-74
2022/01/25 08:39:13;;;;;;;;;;;;;;;;;;2099779;28;19929;-74
2022/01/25 08:40:15;;;;;;;;;;;;;;;;;;2099902;28;19929;-74
2022/01/25 08:41:17;;;;;;;;;;;;;;;;;;2100022;28;19996;-77
2022/01/25 08:42:20;;;;;;;;;;;;;;;;;;2108940;28;19928;-79
2022/01/25 08:43:22;;;;;;;;;;;;;;;;;;2103723;28;19925;-77
2022/01/25 08:44:24;;;;;;;;;;;;;;;;;;2109372;28;19982;-77
2022/01/25 08:45:26;;;;;;;;;;;;;;;;;;2113007;28;19928;-75
2022/01/25 08:46:29;;;;;;;;;;;;;;;;;;2110156;28;19961;-76
2022/01/25 08:47:31;;;;;;;;;;;;;;;;;;2113452;28;19932;-78
2022/01/25 08:48:34;;;;;;;;;;;;;;;;;;2117797;28;19924;-78
2022/01/25 08:49:38;;;;;;;;;;;;;;;;;;2112784;28;19975;-77
2022/01/25 08:50:39;;;;;;;;;;;;;;;;;;2107018;28;20000;-76
2022/01/25 08:51:43;;;;;;;;;;;;;;;;;;2093406;28;19932;-78
2022/01/25 08:52:45;;;;;;;;;;;;;;;;;;2104549;28;19932;-74
2022/01/25 08:53:48;;;;;;;;;;;;;;;;;;2101321;28;19929;-73
2022/01/25 08:54:49;;;;;;;;;;;;;;;;;;2100781;28;19936;-76
2022/01/25 08:55:51;;;;;;;;;;;;;;;;;;2102668;28;20676;-77
2022/01/25 08:56:52;;;;;;;;;;;;;;;;;;2097624;28;19929;-78
2022/01/25 08:57:54;;;;;;;;;;;;;;;;;;2106175;28;20027;-78